Time;durP1;ratioP1;P1;durP2;ratioP2;P2;SDS_P1;SDS_P2;PMS_P1;PMS_P2;Temp;Humidity;BMP_temperature;BMP_pressure;BME280_temperature;BME280_humidity;BME280_pressure;Samples;Min_cycle;Max_cycle;Signal;HPM_P1;HPM_P2
2022/12/23 00:00:14;;;;;;;14.27;5.95;;;12.00;99.90;;;;;;5090115;28;20193;-64
2022/12/23 00:02:40;;;;;;;12.60;6.03;;;12.00;99.90;;;;;;5091620;28;20180;-64
2022/12/23 00:05:06;;;;;;;13.90;5.70;;;12.00;99.90;;;;;;5082311;28;20274;-65
2022/12/23 00:07:32;;;;;;;11.02;6.07;;;12.00;99.90;;;;;;5092962;28;20216;-64
2022/12/23 00:09:57;;;;;;;10.07;5.82;;;12.10;99.90;;;;;;5084389;28;20193;-63
2022/12/23 00:15:08;;;;;;;13.98;6.60;;;12.10;99.90;;;;;;5087784;28;20291;-63
2022/12/23 00:17:36;;;;;;;14.77;5.10;;;12.00;99.90;;;;;;5090851;28;20191;-64
2022/12/23 00:20:04;;;;;;;5.70;4.68;;;12.00;99.90;;;;;;5084105;28;20188;-63
2022/12/23 00:25:14;;;;;;;7.22;4.32;;;12.10;99.90;;;;;;5082701;28;20232;-63
2022/12/23 00:27:40;;;;;;;12.05;5.05;;;12.10;99.90;;;;;;5090033;28;20743;-64
2022/12/23 00:30:08;;;;;;;6.70;4.85;;;12.20;99.90;;;;;;5090642;28;20196;-64
2022/12/23 00:32:35;;;;;;;7.82;3.90;;;12.20;99.90;;;;;;5088009;28;20700;-63
2022/12/23 00:35:00;;;;;;;4.45;3.67;;;12.20;99.90;;;;;;5087661;28;20204;-64
2022/12/23 00:37:29;;;;;;;11.27;3.63;;;12.20;99.90;;;;;;5090840;28;20596;-63
2022/12/23 00:42:54;;;;;;;9.75;4.40;;;12.10;99.90;;;;;;5090320;28;20264;-63
2022/12/23 00:45:19;;;;;;;9.18;3.28;;;12.10;99.90;;;;;;5059618;28;20229;-64
2022/12/23 00:50:33;;;;;;;7.50;2.72;;;12.10;99.90;;;;;;5089773;28;20210;-63
2022/12/23 00:52:59;;;;;;;2.55;2.20;;;12.20;99.90;;;;;;5091356;28;20185;-64
2022/12/23 00:55:24;;;;;;;5.63;2.85;;;12.10;99.90;;;;;;5071588;28;20249;-63
2022/12/23 00:57:50;;;;;;;10.68;2.83;;;12.10;99.90;;;;;;5094375;28;20211;-64
2022/12/23 01:00:16;;;;;;;3.53;2.58;;;12.10;99.90;;;;;;5082402;28;20267;-63
2022/12/23 01:05:35;;;;;;;5.70;2.05;;;12.10;99.90;;;;;;5093310;28;20288;-63
2022/12/23 01:08:06;;;;;;;10.23;2.58;;;12.10;99.90;;;;;;5075415;28;20192;-64
2022/12/23 01:10:34;;;;;;;8.18;2.38;;;12.10;99.90;;;;;;5087328;28;20219;-63
2022/12/23 01:13:00;;;;;;;3.50;2.92;;;12.10;99.90;;;;;;5094556;28;20267;-63
2022/12/23 01:15:26;;;;;;;10.45;3.55;;;12.20;99.90;;;;;;5094432;28;20355;-64
2022/12/23 01:17:51;;;;;;;9.55;3.38;;;12.30;99.90;;;;;;5087110;28;20189;-64
2022/12/23 01:20:17;;;;;;;7.22;2.97;;;12.30;99.90;;;;;;5094016;28;20290;-63
2022/12/23 01:22:43;;;;;;;8.98;3.17;;;12.30;99.90;;;;;;5086707;28;20603;-64
2022/12/23 01:25:09;;;;;;;12.15;2.97;;;12.20;99.90;;;;;;5093928;28;20565;-64
2022/12/23 01:27:35;;;;;;;6.88;3.67;;;12.30;99.90;;;;;;5083088;28;20664;-64
2022/12/23 01:30:01;;;;;;;5.75;2.85;;;12.30;99.90;;;;;;5084309;28;20231;-64
2022/12/23 01:32:26;;;;;;;6.63;3.85;;;12.30;99.90;;;;;;5091135;28;20185;-63
2022/12/23 01:34:52;;;;;;;7.72;2.63;;;12.40;99.90;;;;;;5080887;28;20216;-63
2022/12/23 01:37:18;;;;;;;12.90;3.92;;;12.40;99.90;;;;;;5093040;28;20184;-63
2022/12/23 01:39:43;;;;;;;3.83;2.88;;;12.40;99.90;;;;;;5092660;28;20184;-64
2022/12/23 01:45:13;;;;;;;16.92;3.55;;;12.40;99.90;;;;;;5090761;28;20232;-63
2022/12/23 01:47:53;;;;;;;11.80;3.00;;;12.40;99.90;;;;;;5087555;28;20181;-64
2022/12/23 01:50:28;;;;;;;4.75;3.50;;;12.20;99.90;;;;;;5081022;28;20228;-63
2022/12/23 01:53:14;;;;;;;7.60;3.22;;;12.20;99.90;;;;;;5094339;28;20191;-64
2022/12/23 01:55:54;;;;;;;14.00;3.58;;;12.20;99.90;;;;;;5082307;28;20714;-64
2022/12/23 01:58:24;;;;;;;6.28;2.53;;;12.00;99.90;;;;;;5093120;28;20180;-64
2022/12/23 02:03:41;;;;;;;5.80;2.70;;;12.10;99.90;;;;;;5093224;28;20184;-64
2022/12/23 02:09:16;;;;;;;10.48;2.72;;;12.20;99.90;;;;;;5080949;28;20540;-63
2022/12/23 02:12:00;;;;;;;5.57;2.65;;;12.10;99.90;;;;;;5084297;28;20189;-64
2022/12/23 02:18:04;;;;;;;3.15;2.65;;;11.90;99.90;;;;;;5076290;28;20254;-64
2022/12/23 02:20:56;;;;;;;7.18;3.13;;;12.00;99.90;;;;;;5093570;28;20180;-64
2022/12/23 02:23:31;;;;;;;7.07;2.75;;;11.90;99.90;;;;;;5086994;28;20204;-62
2022/12/23 02:26:31;;;;;;;7.05;2.67;;;11.80;99.90;;;;;;5088140;28;20294;-63
2022/12/23 02:29:19;;;;;;;8.80;3.00;;;11.80;99.90;;;;;;5105426;28;20661;-63
2022/12/23 02:32:03;;;;;;;5.00;1.80;;;11.90;99.90;;;;;;5092699;28;20176;-64
2022/12/23 02:34:48;;;;;;;3.03;2.35;;;11.90;99.90;;;;;;5093619;28;20189;-63
2022/12/23 02:37:23;;;;;;;10.30;3.40;;;11.80;99.90;;;;;;5089078;28;20184;-64
2022/12/23 02:40:01;;;;;;;4.55;2.15;;;11.70;99.90;;;;;;5084990;28;20227;-64
2022/12/23 02:42:48;;;;;;;3.78;2.00;;;11.60;99.90;;;;;;5092518;28;20544;-63
2022/12/23 02:45:17;;;;;;;6.57;2.47;;;11.50;99.90;;;;;;5092367;28;20258;-64
2022/12/23 02:47:57;;;;;;;3.58;2.05;;;11.50;99.90;;;;;;5093012;28;20185;-64
2022/12/23 02:50:28;;;;;;;3.97;2.65;;;11.40;99.90;;;;;;5092390;28;20176;-64
2022/12/23 02:52:58;;;;;;;4.53;2.30;;;11.40;99.90;;;;;;5090931;28;20266;-64
2022/12/23 02:55:31;;;;;;;5.38;2.45;;;11.30;99.90;;;;;;5093156;28;20194;-64
2022/12/23 02:58:01;;;;;;;2.50;1.85;;;11.30;99.90;;;;;;5092481;28;20184;-63
2022/12/23 03:00:28;;;;;;;5.10;3.22;;;11.40;99.90;;;;;;5073375;28;20279;-63
2022/12/23 03:02:54;;;;;;;7.03;2.78;;;11.40;99.90;;;;;;5088093;28;20600;-64
2022/12/23 03:05:26;;;;;;;7.88;2.55;;;11.40;99.90;;;;;;5091105;28;20296;-64
2022/12/23 03:07:55;;;;;;;5.93;2.67;;;11.40;99.90;;;;;;5091530;28;20553;-66
2022/12/23 03:11:00;;;;;;;4.00;2.55;;;11.40;99.90;;;;;;5092662;28;20708;-63
2022/12/23 03:14:09;;;;;;;9.40;2.88;;;11.40;99.90;;;;;;5066081;28;20197;-64
2022/12/23 03:16:54;;;;;;;4.00;2.42;;;11.40;99.90;;;;;;5090516;28;20331;-64
2022/12/23 03:19:23;;;;;;;4.40;2.70;;;11.50;99.90;;;;;;5082308;28;20246;-63
2022/12/23 03:22:05;;;;;;;6.57;2.60;;;11.50;99.90;;;;;;5091618;28;20264;-64
2022/12/23 03:25:09;;;;;;;5.20;2.83;;;11.60;99.90;;;;;;5080311;28;20306;-65
2022/12/23 03:27:57;;;;;;;4.13;2.45;;;11.50;99.90;;;;;;5090601;28;20287;-65
2022/12/23 03:30:24;;;;;;;3.50;2.20;;;11.40;99.90;;;;;;5086218;28;20522;-65
2022/12/23 03:33:15;;;;;;;6.25;2.58;;;11.40;99.90;;;;;;5085748;28;20193;-63
2022/12/23 03:35:50;;;;;;;7.88;2.85;;;11.50;99.90;;;;;;5089050;28;20242;-63
2022/12/23 03:38:18;;;;;;;8.80;2.97;;;11.50;99.90;;;;;;5082882;28;20187;-63
2022/12/23 03:40:54;;;;;;;9.38;3.83;;;11.60;99.90;;;;;;5087196;28;20187;-64
2022/12/23 03:43:25;;;;;;;3.15;2.45;;;11.60;99.90;;;;;;5091875;28;20188;-64
2022/12/23 03:46:08;;;;;;;8.55;3.75;;;11.60;99.90;;;;;;5091658;28;20566;-64
2022/12/23 03:48:48;;;;;;;6.07;3.80;;;11.50;99.90;;;;;;5092031;28;20233;-65
2022/12/23 03:51:22;;;;;;;7.28;3.17;;;11.50;99.90;;;;;;5091396;28;20184;-64
2022/12/23 03:54:02;;;;;;;4.70;2.97;;;11.60;99.90;;;;;;5090650;28;20188;-64
2022/12/23 03:56:33;;;;;;;13.68;3.20;;;11.60;99.90;;;;;;5083304;28;20238;-64
2022/12/23 03:59:02;;;;;;;8.75;3.17;;;11.60;99.90;;;;;;5087418;28;20178;-64
2022/12/23 04:01:47;;;;;;;4.65;3.03;;;11.60;99.90;;;;;;5087005;28;20260;-64
2022/12/23 04:04:42;;;;;;;4.13;2.53;;;11.70;99.90;;;;;;5090213;28;20265;-64
2022/12/23 04:07:26;;;;;;;10.38;2.53;;;11.70;99.90;;;;;;5087525;28;20250;-64
2022/12/23 04:09:53;;;;;;;3.20;2.50;;;11.80;99.90;;;;;;5090903;28;20202;-64
2022/12/23 04:12:22;;;;;;;4.30;2.60;;;11.70;99.90;;;;;;5081229;28;20188;-64
2022/12/23 04:14:49;;;;;;;2.72;2.42;;;11.70;99.90;;;;;;5083364;28;20498;-64
2022/12/23 04:17:16;;;;;;;6.80;2.95;;;11.70;99.90;;;;;;5079909;28;20220;-64
2022/12/23 04:19:44;;;;;;;5.82;2.53;;;11.90;99.90;;;;;;5087862;28;20289;-65
2022/12/23 04:22:10;;;;;;;5.35;3.30;;;11.90;99.90;;;;;;5091838;28;20195;-64
2022/12/23 04:24:36;;;;;;;7.47;3.05;;;11.80;99.90;;;;;;5091605;28;20239;-64
2022/12/23 04:27:02;;;;;;;4.63;2.45;;;11.80;99.90;;;;;;5093424;28;20217;-63
2022/12/23 04:29:27;;;;;;;3.70;2.90;;;11.80;99.90;;;;;;5077957;28;20236;-64
2022/12/23 04:31:53;;;;;;;3.38;2.25;;;11.90;99.90;;;;;;5092643;28;20192;-64
2022/12/23 04:34:19;;;;;;;7.15;2.63;;;11.90;99.90;;;;;;5093767;28;20195;-65
2022/12/23 04:36:44;;;;;;;4.63;3.05;;;11.90;99.90;;;;;;5095738;28;20546;-64
2022/12/23 04:39:10;;;;;;;5.40;2.67;;;12.00;99.90;;;;;;5092508;28;20208;-65
2022/12/23 04:41:36;;;;;;;3.90;2.28;;;12.00;99.90;;;;;;5083418;28;20249;-64
2022/12/23 04:44:01;;;;;;;3.03;2.40;;;11.90;99.90;;;;;;5088527;28;20293;-65
2022/12/23 04:46:27;;;;;;;7.70;3.38;;;11.90;99.90;;;;;;5077320;28;20189;-64
2022/12/23 04:48:53;;;;;;;4.32;2.65;;;11.80;99.90;;;;;;5093242;28;20608;-64
2022/12/23 04:51:18;;;;;;;3.38;2.92;;;11.60;99.90;;;;;;5090831;28;20643;-63
2022/12/23 04:53:44;;;;;;;10.50;3.50;;;11.70;99.90;;;;;;5093836;28;20651;-63
2022/12/23 04:56:10;;;;;;;6.85;3.53;;;11.70;99.90;;;;;;5092841;28;20203;-64
2022/12/23 04:58:35;;;;;;;5.57;3.60;;;11.70;99.90;;;;;;5093971;28;20231;-63
2022/12/23 05:01:07;;;;;;;6.30;3.63;;;11.70;99.90;;;;;;5088294;28;20189;-64
2022/12/23 05:03:32;;;;;;;6.72;3.35;;;11.70;99.90;;;;;;5089970;28;20181;-65
2022/12/23 05:05:58;;;;;;;8.43;3.63;;;11.80;99.90;;;;;;5094577;28;20720;-64
2022/12/23 05:08:24;;;;;;;7.57;3.90;;;11.80;99.90;;;;;;5090953;28;20617;-63
2022/12/23 05:10:50;;;;;;;4.07;3.15;;;11.80;99.90;;;;;;5075122;28;20242;-64
2022/12/23 05:13:15;;;;;;;6.03;3.00;;;11.70;99.90;;;;;;5087298;28;20268;-64
2022/12/23 05:15:47;;;;;;;5.90;3.92;;;11.80;99.90;;;;;;5090356;28;20185;-64
2022/12/23 05:18:13;;;;;;;5.32;3.72;;;11.50;99.90;;;;;;5093516;28;20559;-65
2022/12/23 05:20:39;;;;;;;11.52;4.07;;;11.50;99.90;;;;;;5083112;28;20212;-63
2022/12/23 05:23:04;;;;;;;8.10;4.72;;;11.60;99.90;;;;;;5089628;28;20219;-64
2022/12/23 05:25:32;;;;;;;7.47;4.43;;;11.60;99.90;;;;;;5081565;28;20314;-64
2022/12/23 05:27:58;;;;;;;5.85;3.80;;;11.70;99.90;;;;;;5085896;28;20566;-64
2022/12/23 05:30:24;;;;;;;6.85;4.28;;;11.80;99.90;;;;;;5070325;28;20188;-64
2022/12/23 05:32:53;;;;;;;7.72;4.18;;;11.70;99.90;;;;;;5084877;28;20185;-63
2022/12/23 05:35:19;;;;;;;11.63;4.43;;;11.80;99.90;;;;;;5092632;28;20211;-64
2022/12/23 05:37:45;;;;;;;9.38;4.30;;;11.70;99.90;;;;;;5093855;28;20169;-64
2022/12/23 05:40:11;;;;;;;5.53;3.65;;;11.70;99.90;;;;;;5093407;28;20241;-63
2022/12/23 05:42:36;;;;;;;9.27;4.88;;;11.80;99.90;;;;;;5073449;28;20234;-63
2022/12/23 05:45:02;;;;;;;7.18;3.72;;;11.90;99.90;;;;;;5094208;28;20212;-63
2022/12/23 05:47:28;;;;;;;5.45;3.53;;;11.90;99.90;;;;;;5091068;28;20281;-63
2022/12/23 05:49:54;;;;;;;6.53;3.60;;;11.80;99.90;;;;;;5091274;28;20270;-64
2022/12/23 05:52:19;;;;;;;5.55;3.53;;;11.80;99.90;;;;;;5066563;28;20193;-64
2022/12/23 05:54:45;;;;;;;6.03;3.20;;;11.70;99.90;;;;;;5102664;28;20292;-67
2022/12/23 05:57:11;;;;;;;6.32;3.22;;;11.60;99.90;;;;;;5087820;28;20518;-64
2022/12/23 05:59:37;;;;;;;8.15;3.72;;;11.60;99.90;;;;;;5084983;28;20186;-65
2022/12/23 06:02:03;;;;;;;6.05;3.05;;;11.70;99.90;;;;;;5069711;28;20185;-64
2022/12/23 06:04:28;;;;;;;4.60;2.83;;;11.70;99.90;;;;;;5099145;28;20610;-65
2022/12/23 06:06:54;;;;;;;5.47;3.38;;;11.70;99.90;;;;;;5081645;28;20188;-63
2022/12/23 06:09:20;;;;;;;6.00;3.20;;;11.60;99.90;;;;;;5086014;28;20506;-63
2022/12/23 06:11:46;;;;;;;6.45;3.47;;;11.60;99.90;;;;;;5084794;28;20193;-64
2022/12/23 06:14:11;;;;;;;7.93;3.97;;;11.60;99.90;;;;;;5092907;28;20184;-63
2022/12/23 06:16:37;;;;;;;5.95;3.97;;;11.60;99.90;;;;;;5089924;28;20255;-63
2022/12/23 06:19:03;;;;;;;4.47;3.13;;;11.70;99.90;;;;;;5092426;28;20584;-63
2022/12/23 06:21:28;;;;;;;8.75;2.67;;;11.80;99.90;;;;;;5093037;28;20661;-64
2022/12/23 06:23:54;;;;;;;5.32;2.85;;;11.70;99.90;;;;;;5093533;28;20302;-63
2022/12/23 06:26:20;;;;;;;3.53;3.00;;;11.60;99.90;;;;;;5088188;28;20213;-64
2022/12/23 06:28:45;;;;;;;7.53;3.40;;;11.50;99.90;;;;;;5091839;28;20271;-64
2022/12/23 06:31:11;;;;;;;5.95;3.53;;;11.50;99.90;;;;;;5093952;28;20270;-64
2022/12/23 06:33:37;;;;;;;3.63;2.83;;;11.50;99.90;;;;;;5091508;28;20192;-64
2022/12/23 06:36:03;;;;;;;6.60;3.63;;;11.70;99.90;;;;;;5106606;28;20199;-63
2022/12/23 06:38:28;;;;;;;11.85;4.05;;;11.50;99.90;;;;;;5091545;28;20192;-63
2022/12/23 06:40:54;;;;;;;6.63;3.33;;;11.60;99.90;;;;;;5093106;28;20181;-63
2022/12/23 06:43:20;;;;;;;9.23;3.60;;;11.50;99.90;;;;;;5092163;28;20196;-63
2022/12/23 06:45:47;;;;;;;11.55;3.38;;;11.50;99.90;;;;;;5073369;28;20209;-63
2022/12/23 06:48:14;;;;;;;7.43;3.08;;;11.50;99.90;;;;;;5093019;28;20189;-63
2022/12/23 06:50:39;;;;;;;7.88;3.78;;;11.50;99.90;;;;;;5088914;28;20526;-64
2022/12/23 06:53:05;;;;;;;3.42;2.90;;;11.40;99.90;;;;;;5091411;28;20195;-65
2022/12/23 06:55:31;;;;;;;8.75;3.55;;;11.30;99.90;;;;;;5087180;28;20199;-63
2022/12/23 06:57:57;;;;;;;4.30;3.42;;;11.20;99.90;;;;;;5092643;28;20208;-63
2022/12/23 07:00:22;;;;;;;6.57;4.07;;;11.20;99.90;;;;;;5092825;28;20242;-62
2022/12/23 07:02:48;;;;;;;5.35;2.78;;;11.20;99.90;;;;;;5090098;28;20177;-63
2022/12/23 07:05:14;;;;;;;6.07;4.15;;;11.20;99.90;;;;;;5092058;28;20215;-64
2022/12/23 07:07:39;;;;;;;5.28;2.78;;;11.20;99.90;;;;;;5087586;28;20204;-64
2022/12/23 07:10:06;;;;;;;6.90;3.15;;;11.20;99.90;;;;;;5078773;28;20180;-64
2022/12/23 07:12:32;;;;;;;8.32;3.47;;;11.30;99.90;;;;;;5083168;28;20185;-63
2022/12/23 07:14:58;;;;;;;8.40;3.88;;;11.40;99.90;;;;;;5077879;28;20196;-64
2022/12/23 07:17:24;;;;;;;6.03;2.67;;;11.40;99.90;;;;;;5088082;28;20180;-63
2022/12/23 07:19:50;;;;;;;5.18;4.05;;;11.50;99.90;;;;;;5084972;28;20176;-63
2022/12/23 07:22:16;;;;;;;6.80;4.05;;;11.40;99.90;;;;;;5063389;28;20188;-64
2022/12/23 07:24:41;;;;;;;10.57;4.63;;;11.30;99.90;;;;;;5092985;28;20212;-64
2022/12/23 07:27:07;;;;;;;13.45;5.40;;;11.10;99.90;;;;;;5077995;28;20252;-65
2022/12/23 07:29:32;;;;;;;11.05;5.03;;;11.40;99.90;;;;;;5080788;28;20243;-64
2022/12/23 07:32:00;;;;;;;8.10;3.80;;;11.50;99.90;;;;;;5073439;28;20598;-64
2022/12/23 07:34:26;;;;;;;9.90;4.95;;;11.40;99.90;;;;;;5088015;28;20193;-63
2022/12/23 07:36:52;;;;;;;7.88;5.20;;;11.30;99.90;;;;;;5083054;28;20260;-64
2022/12/23 07:39:18;;;;;;;10.52;5.10;;;11.30;99.90;;;;;;5090483;28;20534;-64
2022/12/23 07:41:44;;;;;;;14.10;5.50;;;11.30;99.90;;;;;;5091110;28;20208;-64
2022/12/23 07:44:09;;;;;;;10.05;6.10;;;11.30;99.90;;;;;;5092032;28;20311;-64
2022/12/23 07:46:35;;;;;;;10.23;5.65;;;11.40;99.90;;;;;;5081903;28;20197;-65
2022/12/23 07:49:01;;;;;;;12.30;6.03;;;11.40;99.90;;;;;;5087827;28;20235;-64
2022/12/23 07:51:26;;;;;;;16.85;6.65;;;11.40;99.90;;;;;;5083275;28;20192;-64
2022/12/23 07:53:52;;;;;;;13.15;6.25;;;11.30;99.90;;;;;;5091037;28;20251;-63
2022/12/23 07:56:18;;;;;;;17.10;6.95;;;11.30;99.90;;;;;;5089903;28;20553;-63
2022/12/23 07:58:48;;;;;;;15.60;6.50;;;11.40;99.90;;;;;;5083693;28;20185;-63
2022/12/23 08:01:14;;;;;;;11.82;4.80;;;11.40;99.90;;;;;;5087836;28;20185;-63
2022/12/23 08:03:40;;;;;;;16.15;6.30;;;11.30;99.90;;;;;;5079259;28;20181;-63
2022/12/23 08:06:11;;;;;;;14.07;4.95;;;11.40;99.90;;;;;;5084360;28;20277;-63
2022/12/23 08:08:37;;;;;;;12.07;4.95;;;11.50;99.90;;;;;;5090990;28;20531;-64
2022/12/23 08:11:06;;;;;;;8.60;4.07;;;11.40;99.90;;;;;;5096037;28;20181;-62
2022/12/23 08:13:34;;;;;;;7.82;4.88;;;11.50;99.90;;;;;;5095730;28;20184;-63
2022/12/23 08:16:01;;;;;;;13.35;6.18;;;11.40;99.90;;;;;;5096146;28;20181;-63
2022/12/23 08:18:29;;;;;;;11.70;6.20;;;11.40;99.90;;;;;;5090342;28;20670;-64
2022/12/23 08:20:57;;;;;;;15.82;7.05;;;11.40;99.90;;;;;;5096068;28;20184;-64
2022/12/23 08:23:24;;;;;;;10.27;6.10;;;11.40;99.90;;;;;;5088216;28;20756;-63
2022/12/23 08:26:00;;;;;;;10.35;6.05;;;11.40;99.90;;;;;;5089947;28;20219;-64
2022/12/23 08:28:26;;;;;;;11.80;5.93;;;11.60;99.90;;;;;;5083108;28;20690;-64
2022/12/23 08:30:52;;;;;;;8.65;5.40;;;11.70;99.90;;;;;;5089790;28;20204;-64
2022/12/23 08:33:18;;;;;;;10.30;5.72;;;11.90;99.90;;;;;;5081916;28;20189;-65
2022/12/23 08:35:43;;;;;;;10.98;6.32;;;11.80;99.90;;;;;;5083235;28;20662;-64
2022/12/23 08:38:09;;;;;;;9.45;5.65;;;11.70;99.90;;;;;;5092587;28;20177;-63
2022/12/23 08:40:37;;;;;;;12.77;5.82;;;11.70;99.90;;;;;;5073341;28;20201;-64
2022/12/23 08:43:03;;;;;;;9.98;5.38;;;11.70;99.90;;;;;;5093296;28;20263;-63
2022/12/23 08:45:29;;;;;;;12.65;5.38;;;11.80;99.90;;;;;;5089721;28;20315;-63
2022/12/23 08:47:54;;;;;;;9.13;4.85;;;11.90;99.90;;;;;;5097048;28;20665;-64
2022/12/23 08:50:20;;;;;;;11.30;5.40;;;11.90;99.90;;;;;;5085823;28;20209;-63
2022/12/23 08:52:46;;;;;;;8.55;4.25;;;11.90;99.90;;;;;;5093139;28;20226;-64
2022/12/23 08:55:11;;;;;;;12.95;5.07;;;11.80;99.90;;;;;;5083048;28;20219;-64
2022/12/23 08:57:37;;;;;;;9.60;5.15;;;11.70;99.90;;;;;;5084955;28;20184;-65
2022/12/23 09:00:03;;;;;;;13.10;4.50;;;11.80;99.90;;;;;;5082301;28;20221;-63
2022/12/23 09:02:29;;;;;;;11.80;6.20;;;11.90;99.90;;;;;;5086698;28;20682;-63
2022/12/23 09:04:54;;;;;;;7.95;5.55;;;11.90;99.90;;;;;;5089561;28;20241;-63
2022/12/23 09:07:20;;;;;;;10.93;4.63;;;11.80;99.90;;;;;;5087532;28;20213;-64
2022/12/23 09:09:46;;;;;;;13.50;4.22;;;11.80;99.90;;;;;;5089803;28;20218;-62
2022/12/23 09:12:12;;;;;;;7.72;4.35;;;12.00;99.90;;;;;;5089070;28;20188;-63
2022/12/23 09:14:37;;;;;;;12.00;4.20;;;12.00;99.90;;;;;;5093761;28;20694;-63
2022/12/23 09:17:03;;;;;;;10.77;4.82;;;12.10;99.90;;;;;;5088987;28;20189;-62
2022/12/23 09:19:29;;;;;;;9.90;6.10;;;12.00;99.90;;;;;;5093519;28;20682;-63
2022/12/23 09:21:54;;;;;;;15.13;5.28;;;11.90;99.90;;;;;;5085900;28;20186;-63
2022/12/23 09:24:20;;;;;;;10.40;4.20;;;11.90;99.90;;;;;;5091690;28;20659;-63
2022/12/23 09:26:46;;;;;;;8.40;4.35;;;11.80;99.90;;;;;;5093015;28;20669;-63
2022/12/23 09:29:11;;;;;;;10.98;5.18;;;11.70;99.90;;;;;;5084582;28;20690;-63
2022/12/23 09:31:37;;;;;;;10.68;5.82;;;11.70;99.90;;;;;;5094802;28;20189;-63
2022/12/23 09:34:03;;;;;;;10.15;5.95;;;11.90;99.90;;;;;;5094345;28;20185;-65
2022/12/23 09:36:28;;;;;;;11.55;6.13;;;11.80;99.90;;;;;;5092085;28;20290;-64
2022/12/23 09:38:56;;;;;;;9.43;4.90;;;11.80;99.90;;;;;;5088754;28;20512;-63
2022/12/23 09:42:07;;;;;;;11.20;4.07;;;11.70;99.90;;;;;;5093281;28;20181;-63
2022/12/23 09:44:48;;;;;;;4.78;3.97;;;11.70;99.90;;;;;;5012027;28;20215;-63
2022/12/23 09:47:19;;;;;;;8.77;4.25;;;11.60;99.90;;;;;;5083642;28;20224;-63
2022/12/23 09:50:01;;;;;;;9.88;3.92;;;11.60;99.90;;;;;;5094357;28;20168;-63
2022/12/23 09:53:02;;;;;;;7.07;4.28;;;11.60;99.90;;;;;;5092522;28;20185;-62
2022/12/23 09:55:51;;;;;;;12.13;3.95;;;11.70;99.90;;;;;;5089284;28;20219;-61
2022/12/23 09:58:58;;;;;;;8.80;3.35;;;11.70;99.90;;;;;;5092581;28;20184;-63
2022/12/23 10:01:35;;;;;;;6.18;3.33;;;11.80;99.90;;;;;;5065976;28;20204;-63
2022/12/23 10:04:22;;;;;;;8.63;4.05;;;11.80;99.90;;;;;;5093878;28;20187;-62
2022/12/23 10:07:02;;;;;;;7.95;4.07;;;11.80;99.90;;;;;;5089109;28;20646;-62
2022/12/23 10:09:31;;;;;;;6.68;4.22;;;11.80;99.90;;;;;;5094225;28;20185;-62
2022/12/23 10:11:58;;;;;;;4.75;3.63;;;11.70;99.90;;;;;;5091952;28;20295;-61
2022/12/23 10:14:30;;;;;;;7.90;4.65;;;11.70;99.90;;;;;;5093847;28;20181;-63
2022/12/23 10:16:59;;;;;;;7.07;4.45;;;11.80;99.90;;;;;;5091557;28;20534;-62
2022/12/23 10:19:42;;;;;;;12.85;4.45;;;11.70;99.90;;;;;;5089414;28;20184;-63
2022/12/23 10:22:12;;;;;;;9.20;4.97;;;11.60;99.90;;;;;;5087636;28;20272;-62
2022/12/23 10:24:44;;;;;;;6.47;4.72;;;11.50;99.90;;;;;;5092008;28;20201;-64
2022/12/23 10:27:16;;;;;;;7.68;5.35;;;11.40;99.90;;;;;;5088024;28;20184;-63
2022/12/23 10:29:42;;;;;;;6.95;5.10;;;11.10;99.90;;;;;;5092356;28;20217;-62
2022/12/23 10:32:22;;;;;;;8.65;4.43;;;11.10;99.90;;;;;;5087210;28;20189;-62
2022/12/23 10:35:14;;;;;;;7.93;5.18;;;11.10;99.90;;;;;;5086646;28;20179;-62
2022/12/23 10:37:55;;;;;;;7.88;4.55;;;11.10;99.90;;;;;;5090151;28;20910;-62
2022/12/23 10:40:24;;;;;;;6.57;4.55;;;11.10;99.90;;;;;;5088363;28;20268;-62
2022/12/23 10:43:07;;;;;;;6.70;4.25;;;11.30;99.90;;;;;;5082986;28;20201;-63
2022/12/23 10:46:09;;;;;;;10.50;5.22;;;11.20;99.90;;;;;;5074681;28;20197;-62
2022/12/23 10:49:02;;;;;;;10.90;6.13;;;11.20;99.90;;;;;;5082447;28;20213;-61
2022/12/23 10:51:29;;;;;;;8.32;5.75;;;11.30;99.90;;;;;;5079036;28;20180;-62
2022/12/23 10:53:57;;;;;;;10.77;7.20;;;11.30;99.90;;;;;;5091898;28;20232;-62
2022/12/23 10:56:23;;;;;;;12.45;6.13;;;11.40;99.90;;;;;;5092276;28;20180;-63
2022/12/23 10:58:54;;;;;;;8.13;6.15;;;11.40;99.90;;;;;;5091036;28;20265;-62
2022/12/23 11:01:21;;;;;;;15.65;6.30;;;11.30;99.90;;;;;;5092592;28;20184;-62
2022/12/23 11:04:13;;;;;;;10.52;6.00;;;11.40;99.90;;;;;;5088112;28;20177;-62
2022/12/23 11:06:44;;;;;;;10.65;5.78;;;11.40;99.90;;;;;;5091225;28;20196;-62
2022/12/23 11:09:37;;;;;;;11.27;6.28;;;11.30;99.90;;;;;;5089229;28;20177;-63
2022/12/23 11:12:06;;;;;;;13.63;7.53;;;11.30;99.90;;;;;;5080264;28;20168;-63
2022/12/23 11:14:49;;;;;;;14.60;7.50;;;11.40;99.90;;;;;;5089019;28;20201;-63
2022/12/23 11:17:29;;;;;;;9.98;6.30;;;11.30;99.90;;;;;;5084725;28;20185;-63
2022/12/23 11:20:10;;;;;;;13.43;7.50;;;11.40;99.90;;;;;;5087494;28;20189;-63
2022/12/23 11:22:49;;;;;;;12.02;7.57;;;11.40;99.90;;;;;;5085830;28;20188;-64
2022/12/23 11:25:39;;;;;;;10.75;6.82;;;11.40;99.90;;;;;;5081509;28;20253;-63
2022/12/23 11:28:18;;;;;;;12.55;7.65;;;11.50;99.90;;;;;;5085155;28;20643;-64
2022/12/23 11:30:54;;;;;;;9.00;6.13;;;11.40;99.90;;;;;;5086685;28;20215;-64
2022/12/23 11:33:32;;;;;;;11.27;6.03;;;11.40;99.90;;;;;;5092441;28;20185;-64
2022/12/23 11:36:12;;;;;;;10.80;6.43;;;11.30;99.90;;;;;;5086257;28;20189;-63
2022/12/23 11:38:51;;;;;;;11.75;6.38;;;11.30;99.90;;;;;;5091226;28;20181;-61
2022/12/23 11:41:23;;;;;;;9.07;5.18;;;11.40;99.90;;;;;;5090354;28;20594;-61
2022/12/23 11:43:54;;;;;;;8.70;5.65;;;11.40;99.90;;;;;;5087939;28;20207;-61
2022/12/23 11:46:26;;;;;;;12.00;6.93;;;11.40;99.90;;;;;;5091563;28;20616;-62
2022/12/23 11:49:16;;;;;;;9.30;6.75;;;11.40;99.90;;;;;;5091339;28;20190;-62
2022/12/23 11:52:02;;;;;;;10.13;6.07;;;11.70;99.90;;;;;;5091867;28;20185;-61
2022/12/23 11:54:28;;;;;;;7.97;5.45;;;11.70;99.90;;;;;;5089359;28;20237;-61
2022/12/23 11:56:54;;;;;;;8.40;5.30;;;11.80;99.90;;;;;;5087509;28;20746;-64
2022/12/23 11:59:35;;;;;;;7.32;5.68;;;11.80;99.90;;;;;;5087726;28;20263;-63
2022/12/23 12:02:19;;;;;;;7.50;4.18;;;11.80;99.90;;;;;;5087946;28;20623;-62
2022/12/23 12:04:57;;;;;;;4.63;4.18;;;11.90;99.90;;;;;;5088744;28;20199;-63
2022/12/23 12:07:24;;;;;;;8.90;4.18;;;11.90;99.90;;;;;;5084241;28;20193;-63
2022/12/23 12:09:50;;;;;;;5.72;4.80;;;11.80;99.90;;;;;;5081971;28;20202;-64
2022/12/23 12:12:19;;;;;;;8.38;5.30;;;11.80;99.90;;;;;;5086470;28;20554;-62
2022/12/23 12:14:56;;;;;;;10.23;4.68;;;11.90;99.90;;;;;;5096485;28;20662;-63
2022/12/23 12:17:45;;;;;;;8.18;5.35;;;12.20;99.90;;;;;;5088969;28;20176;-62
2022/12/23 12:20:13;;;;;;;6.18;4.63;;;12.20;99.90;;;;;;5088279;28;20192;-62
2022/12/23 12:22:47;;;;;;;6.15;4.45;;;12.30;99.90;;;;;;5088991;28;20196;-61
2022/12/23 12:25:17;;;;;;;8.55;5.95;;;12.50;99.90;;;;;;5091490;28;20204;-62
2022/12/23 12:27:54;;;;;;;6.35;4.15;;;12.70;99.90;;;;;;5079383;28;20705;-62
2022/12/23 12:30:21;;;;;;;9.30;5.05;;;12.80;99.90;;;;;;5080424;28;20181;-59
2022/12/23 12:33:05;;;;;;;3.40;3.08;;;13.00;99.90;;;;;;5091158;28;20655;-63
2022/12/23 12:36:11;;;;;;;2.45;2.30;;;12.90;99.90;;;;;;5085084;28;20302;-62
2022/12/23 12:38:38;;;;;;;2.95;2.65;;;13.00;99.90;;;;;;5087382;28;20237;-62
2022/12/23 12:41:32;;;;;;;2.90;2.70;;;13.00;99.90;;;;;;5079538;28;20172;-64
2022/12/23 12:44:31;;;;;;;3.40;2.35;;;13.20;99.90;;;;;;5085648;28;20181;-62
2022/12/23 12:47:14;;;;;;;4.45;2.08;;;13.40;99.90;;;;;;5082634;28;20638;-62
2022/12/23 12:49:48;;;;;;;2.17;1.98;;;13.40;99.90;;;;;;5088418;28;20260;-61
2022/12/23 12:52:23;;;;;;;3.05;2.47;;;13.50;99.90;;;;;;5081848;28;20191;-61
2022/12/23 12:55:06;;;;;;;2.15;1.85;;;13.70;99.90;;;;;;5105668;28;20582;-62
2022/12/23 12:57:34;;;;;;;3.28;2.05;;;13.90;99.90;;;;;;5094817;28;20180;-61
2022/12/23 13:00:01;;;;;;;2.60;1.83;;;13.90;99.90;;;;;;5091865;28;20234;-60
2022/12/23 13:02:45;;;;;;;2.40;2.20;;;14.00;99.90;;;;;;5093368;28;20643;-61
2022/12/23 13:05:17;;;;;;;1.90;1.80;;;14.00;99.90;;;;;;5093267;28;20197;-61
2022/12/23 13:07:43;;;;;;;2.17;2.00;;;14.10;99.90;;;;;;5095275;28;20246;-61
2022/12/23 13:10:14;;;;;;;3.80;1.73;;;14.10;99.90;;;;;;5094666;28;20208;-63
2022/12/23 13:12:55;;;;;;;2.88;2.13;;;14.10;99.90;;;;;;5094364;28;20188;-62
2022/12/23 13:15:48;;;;;;;2.10;2.00;;;14.10;99.90;;;;;;5088980;28;20180;-63
2022/12/23 13:18:37;;;;;;;2.15;2.05;;;14.10;99.90;;;;;;5104462;28;20602;-64
2022/12/23 13:21:18;;;;;;;3.58;2.80;;;14.10;99.90;;;;;;5084505;28;20180;-63
2022/12/23 13:23:47;;;;;;;2.70;2.22;;;14.10;99.90;;;;;;5089426;28;20188;-63
2022/12/23 13:26:34;;;;;;;2.25;2.13;;;14.10;99.90;;;;;;5093775;28;20212;-63
2022/12/23 13:29:00;;;;;;;3.55;2.70;;;14.20;99.90;;;;;;5094069;28;20275;-63
2022/12/23 13:31:41;;;;;;;2.35;2.15;;;14.20;99.90;;;;;;5089767;28;20285;-64